Terminal Aerodrome Forecast
Issued by NWS

Home | Current Version | Previous Version | Graphics & Text | Print | Product List | Glossary On
Versions: 1 2 3 4 5 6 7 8 9 10 11 12 13 14 15 16 17 18 19 20 21 22 23 24 25 26 27 28 29 30 31 32 33 34 35
000
FTUS43 KLSX 010937 AAA
TAFSUS
TAF AMD
KSUS 010937Z 0110/0206 00000KT 4SM BR SCT050 BKN250
      TEMPO 0110/0113 1SM BR
     FM011500 29007KT P6SM BKN030
     FM011800 29010KT P6SM BKN040
     FM020100 32007KT P6SM SCT050 BKN120=

USA.gov is the U.S. government's official web portal to all federal, state and local government web resources and services.